Time;durP1;ratioP1;P1;durP2;ratioP2;P2;SDS_P1;SDS_P2;PMS_P1;PMS_P2;Temp;Humidity;BMP_temperature;BMP_pressure;BME280_temperature;BME280_humidity;BME280_pressure;Samples;Min_cycle;Max_cycle;Signal;HPM_P1;HPM_P2
2023/05/18 00:01:24;;;;;;;8.05;1.00;;;14.50;99.90;;;;;;5061300;28;20072;-59
2023/05/18 00:03:53;;;;;;;3.25;1.00;;;14.60;99.90;;;;;;5044179;28;20078;-58
2023/05/18 00:06:21;;;;;;;1.70;0.65;;;14.70;99.90;;;;;;5029936;28;20032;-59
2023/05/18 00:08:48;;;;;;;2.53;0.70;;;14.80;99.90;;;;;;5027921;28;20032;-62
2023/05/18 00:11:16;;;;;;;4.97;0.90;;;15.00;99.90;;;;;;5050409;28;20024;-59
2023/05/18 00:13:44;;;;;;;5.25;0.70;;;15.10;99.90;;;;;;5043915;28;20163;-58
2023/05/18 00:16:14;;;;;;;5.40;0.98;;;15.10;99.90;;;;;;5043760;28;20029;-58
2023/05/18 00:18:43;;;;;;;3.67;1.00;;;15.20;99.90;;;;;;5049770;28;20025;-59
2023/05/18 00:21:12;;;;;;;4.65;1.48;;;15.30;99.90;;;;;;5034910;28;20047;-59
2023/05/18 00:23:41;;;;;;;2.72;1.02;;;15.40;99.90;;;;;;5033322;28;20417;-59
2023/05/18 00:26:08;;;;;;;2.15;0.75;;;15.40;99.90;;;;;;5036497;28;20029;-59
2023/05/18 00:28:35;;;;;;;5.05;0.70;;;15.50;99.90;;;;;;5030977;28;20154;-58
2023/05/18 00:31:03;;;;;;;5.28;0.85;;;15.60;99.90;;;;;;5039898;28;20044;-59
2023/05/18 00:33:30;;;;;;;1.75;0.50;;;15.60;99.90;;;;;;5039228;28;20050;-59
2023/05/18 00:35:58;;;;;;;2.63;0.85;;;15.70;99.90;;;;;;5036159;28;20492;-59
2023/05/18 00:38:25;;;;;;;2.28;0.60;;;15.70;99.90;;;;;;5050930;28;20032;-59
2023/05/18 00:40:53;;;;;;;1.90;0.80;;;15.70;99.90;;;;;;5035907;28;20057;-59
2023/05/18 00:43:20;;;;;;;3.25;0.77;;;15.60;99.90;;;;;;5040455;28;20039;-59
2023/05/18 00:45:48;;;;;;;2.47;0.55;;;15.80;99.90;;;;;;5032968;28;20071;-59
2023/05/18 00:48:15;;;;;;;5.07;1.00;;;15.80;99.90;;;;;;5050684;28;20017;-59
2023/05/18 00:50:43;;;;;;;2.90;0.95;;;15.90;99.90;;;;;;5048666;28;20025;-59
2023/05/18 00:53:10;;;;;;;4.55;0.82;;;16.10;99.90;;;;;;5034106;28;20103;-58
2023/05/18 00:55:38;;;;;;;4.22;1.00;;;16.10;99.90;;;;;;5050322;28;20107;-59
2023/05/18 00:58:05;;;;;;;1.33;0.60;;;16.10;99.90;;;;;;5050256;28;20078;-59
2023/05/18 01:00:36;;;;;;;2.00;0.45;;;16.20;99.90;;;;;;5049873;28;20021;-58
2023/05/18 01:03:04;;;;;;;2.42;0.70;;;16.30;99.90;;;;;;5030530;28;20302;-59
2023/05/18 01:05:32;;;;;;;2.50;1.10;;;16.30;99.90;;;;;;5049950;28;20025;-58
2023/05/18 01:08:02;;;;;;;5.22;0.70;;;16.20;99.90;;;;;;5038154;28;20053;-58
2023/05/18 01:10:36;;;;;;;3.58;0.70;;;16.20;99.90;;;;;;5037670;28;20029;-58
2023/05/18 01:13:12;;;;;;;4.35;0.68;;;16.20;99.90;;;;;;5058334;28;20051;-58
2023/05/18 01:15:40;;;;;;;4.13;0.60;;;16.20;99.90;;;;;;5051889;28;20047;-59
2023/05/18 01:18:15;;;;;;;2.58;1.27;;;16.30;99.90;;;;;;5069820;28;20025;-59
2023/05/18 01:20:56;;;;;;;2.40;1.15;;;16.50;99.90;;;;;;5047631;28;20020;-59
2023/05/18 01:23:29;;;;;;;2.08;0.68;;;16.50;99.90;;;;;;5043818;28;20416;-59
2023/05/18 01:25:57;;;;;;;2.83;0.60;;;16.50;99.90;;;;;;5038565;28;20538;-59
2023/05/18 01:28:31;;;;;;;3.75;0.60;;;16.50;99.90;;;;;;5032179;28;20389;-60
2023/05/18 01:30:59;;;;;;;1.73;0.77;;;16.40;99.90;;;;;;5021972;28;20037;-60
2023/05/18 01:33:27;;;;;;;4.03;0.80;;;16.40;99.90;;;;;;5042276;28;20025;-57
2023/05/18 01:35:54;;;;;;;3.90;0.70;;;16.50;99.90;;;;;;5041317;28;20017;-60
2023/05/18 01:38:25;;;;;;;5.43;0.65;;;16.60;99.90;;;;;;5044937;28;20021;-61
2023/05/18 01:41:13;;;;;;;3.05;0.80;;;16.70;99.90;;;;;;5019885;28;20032;-61
2023/05/18 01:44:17;;;;;;;3.65;0.73;;;16.80;99.90;;;;;;5021304;28;20496;-61
2023/05/18 01:46:53;;;;;;;4.30;0.85;;;16.90;99.90;;;;;;5041420;28;20039;-61
2023/05/18 01:49:39;;;;;;;2.95;0.75;;;16.90;99.90;;;;;;5032371;28;20045;-61
2023/05/18 01:52:10;;;;;;;3.88;0.77;;;16.90;99.90;;;;;;5038219;28;20032;-61
2023/05/18 01:54:43;;;;;;;3.45;0.40;;;17.00;99.90;;;;;;5039657;28;20120;-61
2023/05/18 01:57:12;;;;;;;2.80;0.50;;;17.00;99.90;;;;;;5040107;28;20017;-61
2023/05/18 01:59:40;;;;;;;4.97;0.85;;;17.10;99.90;;;;;;5039147;28;20240;-61
2023/05/18 02:02:07;;;;;;;1.25;0.43;;;17.20;99.90;;;;;;5036430;28;20017;-61
2023/05/18 02:04:35;;;;;;;2.03;1.00;;;17.10;99.90;;;;;;5039791;28;20032;-61
2023/05/18 02:07:03;;;;;;;7.20;0.70;;;17.10;99.90;;;;;;5034401;28;20028;-61
2023/05/18 02:09:30;;;;;;;3.63;0.57;;;17.10;99.90;;;;;;5043704;28;20037;-61
2023/05/18 02:11:58;;;;;;;4.55;0.95;;;17.10;99.90;;;;;;5046384;28;20369;-60
2023/05/18 02:14:25;;;;;;;4.43;0.77;;;17.00;99.90;;;;;;5025353;28;20041;-60
2023/05/18 02:16:53;;;;;;;1.75;0.40;;;16.80;99.90;;;;;;5040897;28;20100;-60
2023/05/18 02:19:21;;;;;;;2.10;0.68;;;16.70;99.90;;;;;;5041318;28;20478;-61
2023/05/18 02:21:48;;;;;;;4.88;0.80;;;16.80;99.90;;;;;;5044152;28;20032;-61
2023/05/18 02:24:19;;;;;;;2.05;0.70;;;16.90;99.90;;;;;;5044239;28;20082;-59
2023/05/18 02:26:46;;;;;;;3.10;0.60;;;17.10;99.90;;;;;;5025768;28;20027;-61
2023/05/18 02:29:13;;;;;;;5.32;0.95;;;17.20;99.90;;;;;;5030302;28;20025;-61
2023/05/18 02:31:41;;;;;;;7.55;0.90;;;17.30;99.90;;;;;;5039510;28;20025;-60
2023/05/18 02:34:09;;;;;;;2.92;0.77;;;17.30;99.90;;;;;;5046355;28;20775;-61
2023/05/18 02:36:38;;;;;;;1.85;0.75;;;17.20;99.90;;;;;;5043226;28;20019;-61
2023/05/18 02:39:06;;;;;;;2.83;0.60;;;17.10;99.90;;;;;;5028054;28;20386;-60
2023/05/18 02:41:35;;;;;;;2.83;0.88;;;17.20;99.90;;;;;;5045860;28;20509;-61
2023/05/18 02:44:03;;;;;;;5.50;0.70;;;17.30;99.90;;;;;;5046517;28;20029;-61
2023/05/18 02:46:32;;;;;;;3.08;0.88;;;17.50;99.90;;;;;;5043588;28;20096;-60
2023/05/18 02:49:01;;;;;;;5.80;1.17;;;17.50;99.90;;;;;;5048131;28;20091;-60
2023/05/18 02:51:30;;;;;;;2.65;0.88;;;17.60;99.90;;;;;;5043555;28;20028;-60
2023/05/18 02:53:57;;;;;;;2.40;0.65;;;17.60;99.90;;;;;;5049007;28;20442;-61
2023/05/18 02:56:25;;;;;;;3.33;0.68;;;17.80;99.90;;;;;;5051048;28;20033;-60
2023/05/18 02:58:56;;;;;;;1.90;0.63;;;17.90;99.90;;;;;;5040003;28;20062;-60
2023/05/18 03:01:27;;;;;;;3.70;0.50;;;18.10;99.90;;;;;;5036831;28;20475;-60
2023/05/18 03:03:58;;;;;;;1.45;0.75;;;17.90;99.90;;;;;;5033490;28;20087;-60
2023/05/18 03:06:26;;;;;;;2.58;0.52;;;17.90;99.90;;;;;;5044667;28;20056;-61
2023/05/18 03:08:54;;;;;;;4.53;0.80;;;17.80;99.90;;;;;;5037643;28;20033;-60
2023/05/18 03:11:22;;;;;;;4.78;0.68;;;17.70;99.90;;;;;;5020375;28;20068;-61
2023/05/18 03:13:50;;;;;;;3.28;1.25;;;17.80;99.90;;;;;;5048426;28;20098;-60
2023/05/18 03:16:17;;;;;;;2.40;0.73;;;17.90;99.90;;;;;;5039512;28;20029;-61
2023/05/18 03:18:45;;;;;;;2.28;0.60;;;18.10;99.90;;;;;;5024833;28;20025;-60
2023/05/18 03:21:13;;;;;;;3.30;0.63;;;18.30;99.40;;;;;;5049423;28;20428;-60
2023/05/18 03:23:42;;;;;;;1.95;0.70;;;18.20;98.40;;;;;;5040972;28;20033;-60
2023/05/18 03:26:10;;;;;;;4.45;0.57;;;18.10;99.00;;;;;;5039653;28;20280;-58
2023/05/18 03:28:38;;;;;;;3.67;0.70;;;17.80;99.70;;;;;;5046230;28;20021;-59
2023/05/18 03:31:06;;;;;;;5.13;0.77;;;17.60;99.90;;;;;;5050595;28;20025;-58
2023/05/18 03:33:33;;;;;;;3.40;0.95;;;17.40;99.90;;;;;;5038373;28;20048;-59
2023/05/18 03:36:04;;;;;;;2.08;0.60;;;17.40;99.90;;;;;;5044269;28;20048;-62
2023/05/18 03:38:31;;;;;;;3.38;0.70;;;17.50;99.90;;;;;;5037357;28;20108;-58
2023/05/18 03:40:59;;;;;;;3.45;0.90;;;17.70;99.70;;;;;;5047143;28;20025;-58
2023/05/18 03:43:28;;;;;;;2.35;0.80;;;17.90;97.80;;;;;;5040128;28;20450;-58
2023/05/18 03:45:55;;;;;;;4.30;0.70;;;18.00;98.50;;;;;;5021177;28;20116;-60
2023/05/18 03:48:24;;;;;;;2.25;0.57;;;18.10;97.50;;;;;;5029346;28;20041;-57
2023/05/18 03:50:51;;;;;;;2.60;0.63;;;18.10;96.80;;;;;;5043963;28;20025;-60
2023/05/18 03:53:20;;;;;;;1.50;0.70;;;18.20;96.00;;;;;;5045455;28;20021;-57
2023/05/18 03:55:48;;;;;;;4.13;0.77;;;18.30;96.70;;;;;;5045814;28;20029;-57
2023/05/18 03:58:18;;;;;;;2.67;0.60;;;18.50;94.60;;;;;;5023261;28;20088;-58
2023/05/18 04:00:48;;;;;;;4.70;0.63;;;18.60;95.00;;;;;;5048683;28;20025;-59
2023/05/18 04:03:15;;;;;;;1.52;0.70;;;18.80;96.40;;;;;;5045295;28;20111;-59
2023/05/18 04:05:43;;;;;;;6.72;0.80;;;18.60;99.80;;;;;;5030224;28;20079;-61
2023/05/18 04:08:13;;;;;;;1.38;0.70;;;18.60;99.90;;;;;;5037922;28;20074;-57
2023/05/18 04:10:44;;;;;;;3.45;0.73;;;18.60;99.90;;;;;;5039172;28;20445;-56
2023/05/18 04:13:12;;;;;;;5.45;0.95;;;18.30;99.90;;;;;;5047349;28;20055;-58
2023/05/18 04:15:39;;;;;;;2.22;0.90;;;18.20;99.90;;;;;;5042910;28;20102;-58
2023/05/18 04:18:07;;;;;;;2.85;0.90;;;18.20;99.90;;;;;;5022346;28;20021;-59
2023/05/18 04:20:34;;;;;;;3.22;1.40;;;18.10;99.90;;;;;;5045230;28;20036;-58
2023/05/18 04:23:02;;;;;;;2.78;0.70;;;18.10;99.90;;;;;;5024923;28;20030;-58
2023/05/18 04:25:29;;;;;;;7.38;1.55;;;18.00;99.90;;;;;;5036952;28;20060;-59
2023/05/18 04:27:57;;;;;;;7.22;0.93;;;17.90;99.90;;;;;;5024460;28;20087;-59
2023/05/18 04:30:28;;;;;;;8.27;0.98;;;17.90;99.90;;;;;;5041957;28;20021;-58
2023/05/18 04:32:58;;;;;;;9.02;1.23;;;17.80;99.90;;;;;;5032892;28;20590;-58
2023/05/18 04:35:27;;;;;;;6.55;1.00;;;17.60;99.90;;;;;;5039502;28;20140;-57
2023/05/18 04:37:55;;;;;;;5.03;1.17;;;17.50;99.90;;;;;;5019945;28;20394;-58
2023/05/18 04:40:24;;;;;;;2.55;0.75;;;17.40;99.90;;;;;;5042246;28;20123;-57
2023/05/18 04:42:51;;;;;;;4.00;0.73;;;17.30;99.90;;;;;;5040743;28;20029;-56
2023/05/18 04:45:20;;;;;;;4.75;0.70;;;17.30;99.90;;;;;;5026644;28;20025;-59
2023/05/18 04:47:52;;;;;;;4.28;0.85;;;17.20;99.90;;;;;;5033763;28;20109;-53
2023/05/18 04:50:20;;;;;;;5.38;0.88;;;17.10;99.90;;;;;;5042928;28;20049;-59
2023/05/18 04:52:50;;;;;;;3.70;0.70;;;16.90;99.90;;;;;;5044688;28;20025;-55
2023/05/18 04:55:24;;;;;;;3.72;0.90;;;16.80;99.90;;;;;;5042788;28;20045;-57
2023/05/18 04:57:55;;;;;;;5.72;0.93;;;16.80;99.90;;;;;;5039446;28;20386;-57
2023/05/18 05:00:30;;;;;;;3.35;1.00;;;16.70;99.90;;;;;;5026518;28;20031;-59
2023/05/18 05:02:58;;;;;;;10.77;1.20;;;16.70;99.90;;;;;;5043424;28;20036;-57
2023/05/18 05:05:26;;;;;;;4.15;0.88;;;16.60;99.90;;;;;;5040762;28;20029;-61
2023/05/18 05:07:54;;;;;;;3.10;0.80;;;16.50;99.90;;;;;;5043212;28;20091;-60
2023/05/18 05:10:22;;;;;;;8.65;1.15;;;16.40;99.90;;;;;;5040487;28;20033;-60
2023/05/18 05:12:50;;;;;;;8.25;1.00;;;16.30;99.90;;;;;;5038826;28;20033;-61
2023/05/18 05:15:18;;;;;;;3.05;0.90;;;16.20;99.90;;;;;;5039995;28;20037;-61
2023/05/18 05:17:49;;;;;;;3.22;0.85;;;16.00;99.90;;;;;;5037410;28;20028;-61
2023/05/18 05:20:17;;;;;;;7.13;1.52;;;16.00;99.90;;;;;;5028740;28;20052;-61
2023/05/18 05:22:45;;;;;;;2.47;1.00;;;15.90;99.90;;;;;;5044764;28;20036;-60
2023/05/18 05:25:12;;;;;;;4.28;0.88;;;15.90;99.90;;;;;;5040246;28;20029;-61
2023/05/18 05:27:40;;;;;;;2.83;0.73;;;15.80;99.90;;;;;;5038314;28;20024;-62
2023/05/18 05:30:08;;;;;;;5.53;1.30;;;15.80;99.90;;;;;;5040301;28;20424;-58
2023/05/18 05:32:36;;;;;;;3.20;1.02;;;15.70;99.90;;;;;;5035382;28;20052;-60
2023/05/18 05:35:04;;;;;;;2.58;0.63;;;15.70;99.90;;;;;;5045674;28;20048;-61
2023/05/18 05:37:31;;;;;;;4.50;1.10;;;15.60;99.90;;;;;;5044718;28;20035;-61
2023/05/18 05:39:59;;;;;;;3.08;0.80;;;15.50;99.90;;;;;;5021178;28;20053;-60
2023/05/18 05:42:26;;;;;;;6.15;1.10;;;15.40;99.90;;;;;;5043216;28;20032;-57
2023/05/18 05:44:54;;;;;;;6.60;1.05;;;15.30;99.90;;;;;;5039919;28;20037;-58
2023/05/18 05:47:21;;;;;;;4.00;0.90;;;15.20;99.90;;;;;;5046077;28;20522;-58
2023/05/18 05:49:49;;;;;;;5.65;1.00;;;15.10;99.90;;;;;;5047179;28;20445;-58
2023/05/18 05:52:16;;;;;;;5.20;1.27;;;15.10;99.90;;;;;;5043925;28;20017;-58
2023/05/18 05:54:47;;;;;;;2.95;0.95;;;15.00;99.90;;;;;;5022853;28;20057;-59
2023/05/18 05:57:15;;;;;;;4.82;1.23;;;15.00;99.90;;;;;;5029269;28;20029;-58
2023/05/18 05:59:42;;;;;;;4.15;1.50;;;15.00;99.90;;;;;;5044298;28;20020;-59
2023/05/18 06:02:09;;;;;;;7.70;1.17;;;15.00;99.90;;;;;;5042743;28;20079;-53
2023/05/18 06:04:37;;;;;;;8.60;1.88;;;15.00;99.90;;;;;;5033231;28;20029;-59
2023/05/18 06:07:05;;;;;;;3.83;0.95;;;15.00;99.90;;;;;;5044477;28;20342;-58
2023/05/18 06:09:32;;;;;;;7.80;1.05;;;15.00;99.90;;;;;;5037926;28;20022;-59
2023/05/18 06:12:00;;;;;;;2.88;0.85;;;14.90;99.90;;;;;;5034842;28;20036;-59
2023/05/18 06:14:27;;;;;;;1.85;0.65;;;14.80;99.90;;;;;;5016603;28;20486;-57
2023/05/18 06:16:54;;;;;;;5.28;0.93;;;14.70;99.90;;;;;;5042678;28;21505;-59
2023/05/18 06:19:22;;;;;;;3.08;0.73;;;14.60;99.90;;;;;;5048972;28;20033;-58
2023/05/18 06:21:49;;;;;;;5.80;0.98;;;14.50;99.90;;;;;;5049164;28;20028;-59
2023/05/18 06:24:17;;;;;;;5.72;1.63;;;14.40;99.90;;;;;;5023426;28;20447;-59
2023/05/18 06:26:44;;;;;;;3.40;1.35;;;14.30;99.90;;;;;;5043278;28;20463;-58
2023/05/18 06:29:12;;;;;;;4.43;0.95;;;14.10;99.90;;;;;;5049464;28;20514;-59
2023/05/18 06:31:39;;;;;;;5.22;0.90;;;14.00;99.90;;;;;;5045872;28;20716;-59
2023/05/18 06:34:07;;;;;;;6.75;1.10;;;13.80;99.90;;;;;;5049578;28;20037;-58
2023/05/18 06:36:35;;;;;;;3.97;1.52;;;13.70;99.90;;;;;;5047131;28;20029;-59
2023/05/18 06:39:03;;;;;;;2.92;1.33;;;13.50;99.90;;;;;;5038750;28;20040;-59
2023/05/18 06:41:31;;;;;;;7.72;1.40;;;13.40;99.90;;;;;;5051070;28;20024;-59
2023/05/18 06:44:00;;;;;;;9.15;1.30;;;13.20;99.90;;;;;;5043675;28;20030;-59
2023/05/18 06:46:28;;;;;;;5.18;1.23;;;13.10;99.90;;;;;;5039562;28;20029;-59
2023/05/18 06:48:55;;;;;;;4.50;1.10;;;12.90;99.90;;;;;;5029806;28;20502;-59
2023/05/18 06:51:23;;;;;;;6.50;1.70;;;12.80;99.90;;;;;;5020398;28;20034;-58
2023/05/18 06:53:50;;;;;;;8.23;1.13;;;12.70;99.90;;;;;;5038182;28;20517;-57
2023/05/18 06:56:18;;;;;;;5.57;1.30;;;12.50;99.90;;;;;;5042764;28;20033;-58
2023/05/18 06:58:45;;;;;;;5.80;1.42;;;12.40;99.90;;;;;;5045296;28;20044;-59
2023/05/18 07:01:13;;;;;;;4.40;1.73;;;12.40;99.90;;;;;;5049303;28;20029;-57
2023/05/18 07:03:41;;;;;;;5.28;2.80;;;12.30;99.90;;;;;;5046710;28;20448;-57
2023/05/18 07:06:08;;;;;;;9.80;2.83;;;12.30;99.90;;;;;;5045433;28;20033;-55
2023/05/18 07:08:36;;;;;;;3.80;1.83;;;12.30;99.90;;;;;;5043950;28;20078;-54
2023/05/18 07:11:04;;;;;;;6.45;1.52;;;12.30;99.90;;;;;;5043671;28;20029;-46
2023/05/18 07:13:31;;;;;;;7.40;1.13;;;12.30;99.90;;;;;;5039920;28;20041;-56
2023/05/18 07:15:59;;;;;;;3.63;0.95;;;12.30;99.90;;;;;;5028781;28;20044;-53
2023/05/18 07:18:26;;;;;;;6.60;1.38;;;12.30;99.90;;;;;;5047244;28;20382;-54
2023/05/18 07:20:54;;;;;;;10.20;1.65;;;12.20;99.90;;;;;;5042837;28;20033;-55
2023/05/18 07:23:22;;;;;;;4.63;1.08;;;12.20;99.90;;;;;;5046466;28;20048;-54
2023/05/18 07:25:49;;;;;;;3.97;1.27;;;12.10;99.90;;;;;;5048965;28;20056;-53
2023/05/18 07:28:17;;;;;;;2.90;1.17;;;12.10;99.90;;;;;;5045796;28;20028;-56
2023/05/18 07:30:44;;;;;;;6.43;1.23;;;12.10;99.90;;;;;;5036392;28;20025;-54
2023/05/18 07:33:12;;;;;;;4.38;0.93;;;12.20;99.90;;;;;;5049174;28;20024;-54
2023/05/18 07:35:39;;;;;;;7.57;1.20;;;12.10;99.90;;;;;;5044141;28;20033;-55
2023/05/18 07:38:07;;;;;;;3.25;1.05;;;12.00;99.90;;;;;;5034644;28;20043;-56
2023/05/18 07:40:34;;;;;;;5.15;1.45;;;11.90;99.90;;;;;;5045730;28;20036;-55
2023/05/18 07:43:02;;;;;;;5.80;1.38;;;11.90;99.90;;;;;;5047183;28;20071;-55
2023/05/18 07:45:30;;;;;;;4.53;1.17;;;11.90;99.90;;;;;;5047165;28;20067;-55
2023/05/18 07:47:57;;;;;;;2.60;1.02;;;11.80;99.90;;;;;;5037993;28;20031;-54
2023/05/18 07:50:25;;;;;;;2.47;1.10;;;11.80;99.90;;;;;;5044674;28;20065;-57
2023/05/18 07:52:53;;;;;;;7.00;1.20;;;11.70;99.90;;;;;;5039287;28;20021;-52
2023/05/18 07:55:20;;;;;;;6.50;1.70;;;11.60;99.90;;;;;;5043762;28;20745;-56
2023/05/18 07:57:47;;;;;;;2.97;0.98;;;11.60;99.90;;;;;;5045189;28;20021;-51
2023/05/18 08:00:16;;;;;;;7.25;1.20;;;11.60;99.90;;;;;;5040720;28;20092;-55
2023/05/18 08:02:44;;;;;;;2.50;0.82;;;11.60;99.90;;;;;;5042703;28;20037;-55
2023/05/18 08:05:12;;;;;;;3.22;0.80;;;11.60;99.90;;;;;;5042722;28;20055;-54
2023/05/18 08:07:40;;;;;;;5.60;1.10;;;11.60;99.90;;;;;;5041555;28;20056;-51
2023/05/18 08:10:07;;;;;;;3.10;1.30;;;11.60;99.90;;;;;;5045564;28;20025;-55
2023/05/18 08:12:35;;;;;;;3.75;0.90;;;11.60;99.90;;;;;;5043499;28;20108;-53
2023/05/18 08:15:02;;;;;;;6.18;1.15;;;11.70;99.90;;;;;;5045188;28;20033;-56
2023/05/18 08:17:30;;;;;;;2.38;1.10;;;11.70;99.90;;;;;;5043010;28;20025;-56
2023/05/18 08:19:58;;;;;;;5.45;1.02;;;11.70;99.90;;;;;;5031051;28;20028;-56
2023/05/18 08:22:26;;;;;;;12.63;1.58;;;11.60;99.90;;;;;;5021676;28;20031;-55
2023/05/18 08:24:53;;;;;;;4.00;1.10;;;11.60;99.90;;;;;;5035882;28;20048;-53
2023/05/18 08:27:21;;;;;;;4.80;1.05;;;11.60;99.90;;;;;;5041507;28;20016;-56
2023/05/18 08:29:48;;;;;;;3.65;0.82;;;11.60;99.90;;;;;;5039490;28;20025;-51
2023/05/18 08:32:16;;;;;;;2.67;0.95;;;11.50;99.90;;;;;;5022968;28;20036;-52
2023/05/18 08:34:43;;;;;;;10.90;1.20;;;11.40;99.90;;;;;;5036934;28;20403;-52
2023/05/18 08:37:11;;;;;;;4.63;0.90;;;11.30;99.90;;;;;;5034677;28;20673;-54
2023/05/18 08:39:39;;;;;;;4.28;1.05;;;11.20;99.90;;;;;;5037274;28;20029;-53
2023/05/18 08:42:15;;;;;;;4.15;1.48;;;11.10;99.90;;;;;;5036830;28;20486;-55
2023/05/18 08:45:06;;;;;;;1.58;0.80;;;11.00;99.90;;;;;;5019369;28;20028;-55
2023/05/18 08:47:36;;;;;;;3.47;1.00;;;10.90;99.90;;;;;;5018645;28;20075;-55
2023/05/18 08:50:04;;;;;;;4.55;1.23;;;10.80;99.90;;;;;;5036399;28;20414;-52
2023/05/18 08:52:36;;;;;;;5.05;1.23;;;10.90;99.90;;;;;;5032122;28;20028;-56
2023/05/18 08:55:09;;;;;;;2.35;0.85;;;10.90;99.90;;;;;;5039796;28;20090;-54
2023/05/18 08:57:38;;;;;;;3.30;1.02;;;10.80;99.90;;;;;;5040445;28;20036;-57
2023/05/18 09:00:08;;;;;;;6.60;0.90;;;10.70;99.90;;;;;;5035228;28;20482;-55
2023/05/18 09:02:38;;;;;;;2.10;1.10;;;10.50;99.90;;;;;;5042877;28;20033;-55
2023/05/18 09:05:07;;;;;;;2.80;1.27;;;10.40;99.90;;;;;;5036253;28;20034;-56
2023/05/18 09:07:36;;;;;;;3.50;1.10;;;10.30;99.90;;;;;;5019198;28;20108;-50
2023/05/18 09:10:04;;;;;;;4.18;1.40;;;10.30;99.90;;;;;;5018830;28;20058;-54
2023/05/18 09:12:34;;;;;;;9.38;1.95;;;10.30;99.90;;;;;;5030099;28;20445;-54
2023/05/18 09:15:03;;;;;;;8.30;1.80;;;10.30;99.90;;;;;;5041552;28;20045;-57
2023/05/18 09:17:30;;;;;;;6.32;1.38;;;10.30;99.90;;;;;;5019599;28;20071;-55
2023/05/18 09:19:58;;;;;;;9.52;1.50;;;10.30;99.90;;;;;;5040296;28;20037;-53
2023/05/18 09:22:26;;;;;;;5.88;1.85;;;10.20;99.90;;;;;;5041931;28;20435;-54
2023/05/18 09:24:54;;;;;;;5.55;1.27;;;10.10;99.90;;;;;;5032358;28;20397;-53
2023/05/18 09:27:22;;;;;;;3.78;1.45;;;10.00;99.90;;;;;;5021857;28;20075;-57
2023/05/18 09:29:57;;;;;;;5.32;1.40;;;9.90;99.90;;;;;;5036852;28;20029;-53
2023/05/18 09:32:25;;;;;;;3.63;1.30;;;9.90;99.90;;;;;;5038649;28;20104;-58
2023/05/18 09:34:54;;;;;;;2.72;0.98;;;9.70;99.90;;;;;;5041591;28;20115;-54
2023/05/18 09:37:22;;;;;;;3.60;1.05;;;9.60;99.90;;;;;;5023701;28;20032;-56
2023/05/18 09:40:04;;;;;;;3.95;1.10;;;9.60;99.90;;;;;;5042436;28;20486;-56
2023/05/18 09:42:36;;;;;;;2.53;1.23;;;9.50;99.90;;;;;;5038990;28;20370;-55
2023/05/18 09:45:15;;;;;;;2.88;1.58;;;9.50;99.90;;;;;;5036201;28;20048;-52
2023/05/18 09:47:43;;;;;;;9.05;1.50;;;9.60;99.90;;;;;;5042567;28;20025;-52
2023/05/18 09:50:11;;;;;;;3.33;1.15;;;9.70;99.90;;;;;;5031997;28;20045;-54
2023/05/18 09:52:46;;;;;;;4.35;1.80;;;9.90;99.90;;;;;;5035439;28;20387;-55
2023/05/18 09:55:17;;;;;;;3.03;1.40;;;10.00;99.90;;;;;;5040781;28;20052;-52
2023/05/18 09:57:46;;;;;;;5.13;1.08;;;10.20;99.90;;;;;;5041293;28;20044;-50
2023/05/18 10:00:18;;;;;;;2.88;0.85;;;10.40;99.90;;;;;;5041191;28;20039;-56
2023/05/18 10:02:50;;;;;;;2.42;1.65;;;10.60;99.90;;;;;;5042617;28;20040;-56
2023/05/18 10:05:30;;;;;;;8.15;1.40;;;10.80;99.90;;;;;;5036119;28;20592;-55
2023/05/18 10:07:58;;;;;;;3.83;1.65;;;10.90;99.90;;;;;;5033599;28;20457;-57
2023/05/18 10:10:29;;;;;;;6.15;2.05;;;11.00;99.90;;;;;;5045358;28;20436;-54
2023/05/18 10:12:57;;;;;;;7.72;2.30;;;11.00;99.90;;;;;;5031140;28;20497;-61
2023/05/18 10:15:25;;;;;;;4.97;1.77;;;11.00;99.90;;;;;;5019060;28;20403;-53
2023/05/18 10:17:56;;;;;;;4.38;1.80;;;11.00;99.90;;;;;;5036320;28;20036;-57
2023/05/18 10:20:28;;;;;;;4.45;1.30;;;11.00;99.90;;;;;;5042122;28;20467;-56
2023/05/18 10:22:58;;;;;;;4.35;1.40;;;10.90;99.90;;;;;;5041257;28;20033;-55
2023/05/18 10:25:28;;;;;;;8.77;1.70;;;10.90;99.90;;;;;;5039094;28;20021;-53
2023/05/18 10:28:06;;;;;;;3.72;1.45;;;10.90;99.90;;;;;;5020738;28;20061;-58
2023/05/18 10:30:35;;;;;;;3.50;1.25;;;10.80;99.90;;;;;;5041644;28;20025;-56
2023/05/18 10:33:03;;;;;;;7.43;1.48;;;10.70;99.90;;;;;;5034880;28;20108;-55
2023/05/18 10:35:32;;;;;;;5.80;1.60;;;10.50;99.90;;;;;;5036921;28;20039;-56
2023/05/18 10:38:04;;;;;;;3.95;1.50;;;10.40;99.90;;;;;;5034049;28;20029;-55
2023/05/18 10:40:33;;;;;;;2.83;1.63;;;10.40;99.90;;;;;;5032972;28;20486;-54
2023/05/18 10:43:03;;;;;;;3.13;1.60;;;10.30;99.90;;;;;;5037930;28;20175;-57
2023/05/18 10:45:34;;;;;;;9.38;2.38;;;10.30;99.90;;;;;;5035806;28;20441;-55
2023/05/18 10:48:07;;;;;;;2.40;1.40;;;10.20;99.90;;;;;;5022444;28;20079;-56
2023/05/18 10:50:38;;;;;;;4.40;1.70;;;10.30;99.90;;;;;;5030009;28;20037;-55
2023/05/18 10:53:08;;;;;;;3.70;1.45;;;10.30;99.90;;;;;;5031751;28;20025;-54
2023/05/18 10:55:36;;;;;;;4.85;1.45;;;10.30;99.90;;;;;;5034759;28;20037;-57
2023/05/18 10:58:12;;;;;;;2.38;1.20;;;10.30;99.90;;;;;;5041864;28;20025;-55
2023/05/18 11:00:48;;;;;;;2.90;1.45;;;10.30;99.90;;;;;;5039719;28;20021;-55
2023/05/18 11:03:18;;;;;;;4.93;1.55;;;10.10;99.90;;;;;;5041920;28;20036;-53
2023/05/18 11:06:11;;;;;;;3.88;1.50;;;9.90;99.90;;;;;;5044445;28;20028;-55
2023/05/18 11:08:48;;;;;;;4.10;1.10;;;9.70;99.90;;;;;;5028661;28;20056;-53
2023/05/18 11:11:16;;;;;;;2.90;1.65;;;9.60;99.90;;;;;;5044302;28;20083;-52
2023/05/18 11:13:51;;;;;;;5.10;1.65;;;9.50;99.90;;;;;;5046210;28;20025;-53
2023/05/18 11:16:19;;;;;;;4.15;1.27;;;9.40;99.90;;;;;;5045683;28;20029;-56
2023/05/18 11:18:49;;;;;;;5.35;1.98;;;9.30;99.90;;;;;;5034995;28;20040;-55
2023/05/18 11:21:34;;;;;;;2.92;1.20;;;9.30;99.90;;;;;;5045918;28;20025;-56
2023/05/18 11:24:17;;;;;;;4.93;1.90;;;9.20;99.90;;;;;;5048059;28;20033;-56
2023/05/18 11:27:06;;;;;;;9.27;1.40;;;9.10;99.90;;;;;;5040241;28;20040;-57
2023/05/18 11:29:47;;;;;;;4.55;1.58;;;9.00;99.90;;;;;;5037414;28;20028;-54
2023/05/18 11:32:31;;;;;;;3.28;1.10;;;8.90;99.90;;;;;;5022857;28;20028;-54
2023/05/18 11:34:59;;;;;;;3.33;1.10;;;8.70;99.90;;;;;;5043093;28;20158;-52
2023/05/18 11:37:43;;;;;;;1.75;1.10;;;8.60;99.90;;;;;;5040658;28;20429;-54
2023/05/18 11:40:13;;;;;;;2.23;1.20;;;8.50;99.90;;;;;;5045895;28;20033;-52
2023/05/18 11:42:40;;;;;;;2.92;1.10;;;8.40;99.90;;;;;;5035914;28;20024;-52
2023/05/18 11:45:12;;;;;;;4.10;1.20;;;8.40;99.90;;;;;;5041545;28;20037;-57
2023/05/18 11:47:41;;;;;;;4.25;1.50;;;8.30;99.90;;;;;;5024643;28;20682;-56
2023/05/18 11:50:13;;;;;;;4.28;1.02;;;8.30;99.90;;;;;;5047083;28;20045;-49
2023/05/18 11:52:50;;;;;;;5.85;1.55;;;8.20;99.90;;;;;;5037098;28;20029;-56
2023/05/18 11:55:20;;;;;;;3.47;1.27;;;8.20;99.90;;;;;;5024196;28;20037;-56
2023/05/18 11:57:53;;;;;;;5.80;1.40;;;8.20;99.90;;;;;;5029951;28;20028;-57
2023/05/18 12:00:23;;;;;;;2.35;1.17;;;8.20;99.90;;;;;;5027034;28;20029;-55
2023/05/18 12:02:51;;;;;;;3.70;1.67;;;8.30;99.90;;;;;;5035795;28;20055;-55
2023/05/18 12:05:19;;;;;;;6.88;1.20;;;8.50;99.90;;;;;;5030248;28;20040;-54
2023/05/18 12:07:55;;;;;;;6.25;2.85;;;8.60;99.90;;;;;;5047974;28;20082;-56
2023/05/18 12:10:23;;;;;;;3.50;1.42;;;8.80;99.90;;;;;;5047575;28;20090;-55
2023/05/18 12:12:54;;;;;;;3.33;1.38;;;8.90;99.90;;;;;;5048103;28;20028;-54
2023/05/18 12:15:23;;;;;;;4.32;1.52;;;9.00;99.90;;;;;;5045533;28;20124;-56
2023/05/18 12:17:51;;;;;;;5.18;1.70;;;9.10;99.90;;;;;;5039195;28;20067;-55
2023/05/18 12:20:27;;;;;;;3.47;1.38;;;9.20;99.90;;;;;;5044665;28;20021;-56
2023/05/18 12:22:55;;;;;;;8.13;1.70;;;9.30;99.90;;;;;;5045948;28;20516;-55
2023/05/18 12:25:25;;;;;;;4.82;1.35;;;9.30;99.90;;;;;;5043980;28;20108;-55
2023/05/18 12:27:55;;;;;;;7.78;1.50;;;9.20;99.90;;;;;;5046519;28;20043;-55
2023/05/18 12:30:25;;;;;;;5.53;1.70;;;9.10;99.90;;;;;;5023122;28;20032;-56
2023/05/18 12:32:56;;;;;;;8.75;1.88;;;9.00;99.90;;;;;;5042402;28;20057;-54
2023/05/18 12:35:28;;;;;;;5.88;1.67;;;8.90;99.90;;;;;;5040436;28;20103;-52
2023/05/18 12:38:00;;;;;;;7.40;2.30;;;8.80;99.90;;;;;;5041300;28;20120;-55
2023/05/18 12:40:37;;;;;;;11.38;2.60;;;8.80;99.90;;;;;;5022085;28;20115;-54
2023/05/18 12:43:04;;;;;;;10.48;3.20;;;8.80;99.90;;;;;;5038888;28;20040;-53
2023/05/18 12:45:33;;;;;;;10.98;3.20;;;8.80;99.90;;;;;;5038538;28;20490;-56
2023/05/18 12:48:08;;;;;;;7.10;2.28;;;8.80;99.90;;;;;;5045236;28;20037;-55
2023/05/18 12:50:45;;;;;;;15.70;3.38;;;8.70;99.90;;;;;;5045562;28;20382;-55
2023/05/18 12:53:12;;;;;;;15.00;3.40;;;8.60;99.90;;;;;;5040197;28;20029;-53
2023/05/18 12:55:40;;;;;;;20.23;4.88;;;8.60;99.90;;;;;;5038271;28;20120;-54
2023/05/18 12:58:17;;;;;;;12.10;4.55;;;8.50;99.90;;;;;;5042212;28;20021;-53
2023/05/18 13:00:48;;;;;;;11.40;2.88;;;8.50;99.90;;;;;;5040024;28;20071;-56